Terminal Aerodrome Forecast
Issued by NWS Blacksburg, VA

Home | Current Version | Previous Version | Text Only | Print | Product List | Glossary On
Versions: 1 2 3 4 5 6 7 8 9 10 11 12 13 14 15 16 17 18 19 20 21 22 23 24 25 26 27 28 29 30 31 32 33 34 35 36 37 38
000
FTUS41 KRNK 030314 AAA
TAFBLF
TAF AMD
KBLF 030314Z 0303/0324 VRB03KT 6SM BR SCT003 OVC008
     FM030600 00000KT 4SM BR OVC003
     FM031200 12005KT 3SM -RA BR OVC009
     FM031700 12006KT 6SM BR VCSH OVC015=

USA.gov is the U.S. government's official web portal to all federal, state and local government web resources and services.